Impacts TAF Board INFO
FOR SITUATIONAL AWARENESS. NOT TO BE USED FOR FLIGHT PLANNING PURPOSES.
IDs:

KPIT - Pittsburgh Intl, PA, US

Issued at 2330 UTC 11 Dec 2017
Updated at 0222 UTC 12 Dec 2017
Potential Impact None Slight Moderate High
Time0151Z 12/03Z 12/04Z 12/05Z 12/06Z 12/07Z 12/08Z 12/09Z 12/10Z 12/11Z 12/12Z 12/13Z 12/14Z 12/15Z>>
Type OBS PRVL PRVL PRVL PRVL PRVL PRVL PRVL PRVL PRVL PRVL PRVL PRVL PRVL
VIS 10 >6 >6 >6 >6 >6 >6 3 3 3 2 2 2 2
CIG 150 60 60 60 60 60 60 25 25 25 10 10 10 10
Cover OVC BKN BKN BKN BKN BKN BKN OVC OVC OVC OVC OVC OVC OVC
FltCat VFR VFR VFR VFR VFR VFR VFR MVFR MVFR MVFR IFR IFR IFR IFR
WX -- -- -- -- -- -- -- -SN -SN -SN -SHSN -SHSN -SHSN -SHSN
WDir 160 VRB VRB VRB VRB VRB VRB 210 210 210 260 260 260 260
WSpd 3 0 0 0 0 0 0 10 10 10 11 11 11 11
WGst -- -- -- -- -- -- -- -- -- -- 27 27 27 27

Raw TAF
KPIT 112330Z 1200/1306 00000KT P6SM BKN060
  FM120900 21010KT 3SM -SN OVC025
  FM121200 26011G27KT 2SM -SHSN OVC010
  FM121600 28014G31KT P6SM VCSH OVC025


Raw METAR
KPIT 120151Z 16003KT 10SM OVC150 02/M06 A2974 RMK AO2 SLP089 T00221056
KPIT 120051Z 00000KT 10SM FEW060 BKN130 OVC200 02/M06 A2977 RMK AO2 SLP099 T00221056
KPIT 112351Z 11004KT 10SM FEW060 BKN130 OVC200 02/M06 A2979 RMK AO2 SLP106 T00221056 10039 20017 58026

METAR Board
Radar Display
Forecast Discussion

FOR SITUATIONAL AWARENESS. NOT TO BE USED FOR FLIGHT PLANNING PURPOSES.